sensor_id;sensor_type;location;lat;lon;timestamp;P1;P2;P0
77354;PMS7003;66422;51.202;19.936;2024-01-11T00:03:49;142.00;94.00;54.00
77354;PMS7003;66422;51.202;19.936;2024-01-11T00:19:08;129.00;94.00;52.00
77354;PMS7003;66422;51.202;19.936;2024-01-11T00:34:28;154.00;91.00;54.00
77354;PMS7003;66422;51.202;19.936;2024-01-11T00:49:48;147.00;101.33;53.67
77354;PMS7003;66422;51.202;19.936;2024-01-11T01:05:08;129.50;89.00;49.50
77354;PMS7003;66422;51.202;19.936;2024-01-11T01:20:28;133.00;92.00;50.50
77354;PMS7003;66422;51.202;19.936;2024-01-11T01:35:48;138.50;97.00;58.00
77354;PMS7003;66422;51.202;19.936;2024-01-11T01:51:07;134.50;99.50;52.00
77354;PMS7003;66422;51.202;19.936;2024-01-11T02:06:28;141.50;87.50;48.50
77354;PMS7003;66422;51.202;19.936;2024-01-11T02:21:50;148.00;92.50;51.50
77354;PMS7003;66422;51.202;19.936;2024-01-11T02:37:14;150.50;97.00;57.50
77354;PMS7003;66422;51.202;19.936;2024-01-11T02:52:33;146.00;98.00;57.00
77354;PMS7003;66422;51.202;19.936;2024-01-11T03:07:53;118.00;79.00;51.00
77354;PMS7003;66422;51.202;19.936;2024-01-11T03:23:13;126.00;85.00;51.00
77354;PMS7003;66422;51.202;19.936;2024-01-11T03:38:33;138.00;90.00;51.00
77354;PMS7003;66422;51.202;19.936;2024-01-11T03:53:52;101.00;63.50;34.00
77354;PMS7003;66422;51.202;19.936;2024-01-11T04:09:12;120.00;84.00;49.00
77354;PMS7003;66422;51.202;19.936;2024-01-11T04:39:52;130.00;85.00;49.00
77354;PMS7003;66422;51.202;19.936;2024-01-11T04:55:11;134.33;81.00;46.67
77354;PMS7003;66422;51.202;19.936;2024-01-11T05:10:31;125.67;82.67;49.00
77354;PMS7003;66422;51.202;19.936;2024-01-11T05:25:51;131.50;90.00;51.00
77354;PMS7003;66422;51.202;19.936;2024-01-11T05:41:11;96.00;70.00;43.00
77354;PMS7003;66422;51.202;19.936;2024-01-11T05:56:31;116.00;74.00;45.00
77354;PMS7003;66422;51.202;19.936;2024-01-11T06:11:51;96.67;68.33;45.67
77354;PMS7003;66422;51.202;19.936;2024-01-11T06:27:10;106.00;72.00;45.00
77354;PMS7003;66422;51.202;19.936;2024-01-11T06:42:30;106.00;69.00;36.00
77354;PMS7003;66422;51.202;19.936;2024-01-11T06:57:50;113.00;77.67;48.33
77354;PMS7003;66422;51.202;19.936;2024-01-11T07:13:10;113.00;78.00;47.00
77354;PMS7003;66422;51.202;19.936;2024-01-11T07:28:30;104.00;73.50;41.00
77354;PMS7003;66422;51.202;19.936;2024-01-11T07:43:49;106.00;75.00;48.00
77354;PMS7003;66422;51.202;19.936;2024-01-11T07:59:09;113.00;75.50;48.00
77354;PMS7003;66422;51.202;19.936;2024-01-11T08:14:33;109.00;68.00;41.00
77354;PMS7003;66422;51.202;19.936;2024-01-11T08:29:53;97.00;69.00;39.00
77354;PMS7003;66422;51.202;19.936;2024-01-11T08:45:14;108.33;73.00;43.67
77354;PMS7003;66422;51.202;19.936;2024-01-11T09:00:37;98.33;64.67;40.00
77354;PMS7003;66422;51.202;19.936;2024-01-11T09:15:58;102.33;70.33;43.00
77354;PMS7003;66422;51.202;19.936;2024-01-11T09:31:18;108.00;73.00;45.00
77354;PMS7003;66422;51.202;19.936;2024-01-11T09:46:38;108.50;69.50;44.00
77354;PMS7003;66422;51.202;19.936;2024-01-11T10:01:59;114.50;75.50;45.50
77354;PMS7003;66422;51.202;19.936;2024-01-11T10:17:20;112.00;75.50;46.00
77354;PMS7003;66422;51.202;19.936;2024-01-11T10:32:40;108.00;78.00;44.00
77354;PMS7003;66422;51.202;19.936;2024-01-11T10:48:01;96.00;68.00;40.00
77354;PMS7003;66422;51.202;19.936;2024-01-11T11:03:23;106.00;69.00;42.00
77354;PMS7003;66422;51.202;19.936;2024-01-11T11:18:45;103.50;67.00;41.00
77354;PMS7003;66422;51.202;19.936;2024-01-11T11:34:05;99.00;63.00;39.50
77354;PMS7003;66422;51.202;19.936;2024-01-11T11:49:52;94.67;64.00;39.00
77354;PMS7003;66422;51.202;19.936;2024-01-11T12:05:24;85.00;58.00;34.00
77354;PMS7003;66422;51.202;19.936;2024-01-11T12:20:44;87.00;57.00;34.00
77354;PMS7003;66422;51.202;19.936;2024-01-11T12:36:05;79.00;54.00;36.00
77354;PMS7003;66422;51.202;19.936;2024-01-11T12:51:26;63.00;48.00;31.00
77354;PMS7003;66422;51.202;19.936;2024-01-11T13:06:46;76.00;52.00;30.00
77354;PMS7003;66422;51.202;19.936;2024-01-11T13:22:06;78.00;49.00;30.00
77354;PMS7003;66422;51.202;19.936;2024-01-11T13:37:26;73.00;48.00;27.00
77354;PMS7003;66422;51.202;19.936;2024-01-11T13:52:45;71.33;37.33;24.67
77354;PMS7003;66422;51.202;19.936;2024-01-11T14:08:05;73.00;52.00;31.00
77354;PMS7003;66422;51.202;19.936;2024-01-11T14:23:26;80.00;56.00;33.00
77354;PMS7003;66422;51.202;19.936;2024-01-11T14:38:46;64.00;45.00;28.00
77354;PMS7003;66422;51.202;19.936;2024-01-11T14:54:06;73.00;45.00;30.00
77354;PMS7003;66422;51.202;19.936;2024-01-11T15:09:26;64.67;39.00;16.67
77354;PMS7003;66422;51.202;19.936;2024-01-11T15:24:46;72.50;48.50;31.00
77354;PMS7003;66422;51.202;19.936;2024-01-11T15:40:12;73.33;43.67;28.00
77354;PMS7003;66422;51.202;19.936;2024-01-11T15:55:32;70.00;43.00;27.00
77354;PMS7003;66422;51.202;19.936;2024-01-11T16:10:52;51.50;44.00;21.50
77354;PMS7003;66422;51.202;19.936;2024-01-11T16:26:11;60.50;36.00;22.00
77354;PMS7003;66422;51.202;19.936;2024-01-11T16:41:31;48.50;33.50;21.50
77354;PMS7003;66422;51.202;19.936;2024-01-11T16:56:50;51.50;37.00;25.00
77354;PMS7003;66422;51.202;19.936;2024-01-11T17:12:11;46.00;33.00;21.00
77354;PMS7003;66422;51.202;19.936;2024-01-11T17:27:31;56.50;37.00;22.00
77354;PMS7003;66422;51.202;19.936;2024-01-11T17:42:50;38.33;27.67;18.67
77354;PMS7003;66422;51.202;19.936;2024-01-11T17:58:10;51.67;33.00;21.67
77354;PMS7003;66422;51.202;19.936;2024-01-11T18:13:30;65.00;39.50;24.00
77354;PMS7003;66422;51.202;19.936;2024-01-11T18:28:50;51.00;37.00;24.00
77354;PMS7003;66422;51.202;19.936;2024-01-11T18:44:10;51.00;33.00;24.00
77354;PMS7003;66422;51.202;19.936;2024-01-11T18:59:30;54.00;31.00;22.00
77354;PMS7003;66422;51.202;19.936;2024-01-11T19:14:50;48.67;34.33;20.67
77354;PMS7003;66422;51.202;19.936;2024-01-11T19:30:10;57.67;36.33;21.33
77354;PMS7003;66422;51.202;19.936;2024-01-11T19:45:31;47.00;31.00;15.00
77354;PMS7003;66422;51.202;19.936;2024-01-11T20:00:50;27.50;24.50;18.00
77354;PMS7003;66422;51.202;19.936;2024-01-11T20:16:10;51.00;33.00;21.00
77354;PMS7003;66422;51.202;19.936;2024-01-11T20:31:29;49.00;28.00;16.00
77354;PMS7003;66422;51.202;19.936;2024-01-11T20:46:50;56.25;32.50;21.25
77354;PMS7003;66422;51.202;19.936;2024-01-11T21:02:12;62.00;35.50;21.00
77354;PMS7003;66422;51.202;19.936;2024-01-11T21:17:31;48.00;34.25;21.75
77354;PMS7003;66422;51.202;19.936;2024-01-11T21:32:51;66.00;39.00;24.00
77354;PMS7003;66422;51.202;19.936;2024-01-11T21:48:11;57.50;39.50;25.00
77354;PMS7003;66422;51.202;19.936;2024-01-11T22:03:31;43.33;32.67;22.00
77354;PMS7003;66422;51.202;19.936;2024-01-11T22:18:53;54.50;41.50;23.00
77354;PMS7003;66422;51.202;19.936;2024-01-11T22:34:14;41.50;35.00;21.50
77354;PMS7003;66422;51.202;19.936;2024-01-11T22:49:34;54.50;35.50;24.50
77354;PMS7003;66422;51.202;19.936;2024-01-11T23:04:53;58.50;34.50;24.50
77354;PMS7003;66422;51.202;19.936;2024-01-11T23:20:13;61.00;39.00;24.00
77354;PMS7003;66422;51.202;19.936;2024-01-11T23:35:33;43.50;33.50;20.00
77354;PMS7003;66422;51.202;19.936;2024-01-11T23:50:53;38.00;33.50;20.00
